sensor_id;sensor_type;location;lat;lon;timestamp;pressure;altitude;pressure_sealevel;temperature;humidity
46722;BME280;32455;43.430;23.136;2023-04-28T00:00:21;98485.78;;;6.82;53.41
46722;BME280;32455;43.430;23.136;2023-04-28T00:03:06;98482.09;;;6.83;53.69
46722;BME280;32455;43.430;23.136;2023-04-28T00:05:52;98492.97;;;7.03;53.05
46722;BME280;32455;43.430;23.136;2023-04-28T00:08:37;98476.81;;;6.90;55.45
46722;BME280;32455;43.430;23.136;2023-04-28T00:11:22;98483.16;;;6.89;54.80
46722;BME280;32455;43.430;23.136;2023-04-28T00:14:08;98492.56;;;6.85;55.73
46722;BME280;32455;43.430;23.136;2023-04-28T00:16:53;98486.72;;;6.74;57.50
46722;BME280;32455;43.430;23.136;2023-04-28T00:19:41;98485.13;;;6.59;58.34
46722;BME280;32455;43.430;23.136;2023-04-28T00:22:26;98482.00;;;6.55;57.80
46722;BME280;32455;43.430;23.136;2023-04-28T00:25:11;98492.25;;;6.51;57.46
46722;BME280;32455;43.430;23.136;2023-04-28T00:27:56;98489.03;;;6.41;57.64
46722;BME280;32455;43.430;23.136;2023-04-28T00:30:42;98493.06;;;6.52;57.69
46722;BME280;32455;43.430;23.136;2023-04-28T00:33:27;98498.38;;;6.31;57.11
46722;BME280;32455;43.430;23.136;2023-04-28T00:36:12;98494.72;;;6.17;58.86
46722;BME280;32455;43.430;23.136;2023-04-28T00:38:58;98493.25;;;6.14;58.81
46722;BME280;32455;43.430;23.136;2023-04-28T00:41:43;98489.66;;;6.22;57.69
46722;BME280;32455;43.430;23.136;2023-04-28T00:44:29;98498.63;;;6.36;56.40
46722;BME280;32455;43.430;23.136;2023-04-28T00:47:16;98503.09;;;6.50;55.96
46722;BME280;32455;43.430;23.136;2023-04-28T00:50:04;98500.84;;;6.32;58.02
46722;BME280;32455;43.430;23.136;2023-04-28T00:52:51;98496.97;;;6.35;57.68
46722;BME280;32455;43.430;23.136;2023-04-28T00:55:37;98505.03;;;6.41;57.75
46722;BME280;32455;43.430;23.136;2023-04-28T00:58:22;98516.28;;;6.37;57.47
46722;BME280;32455;43.430;23.136;2023-04-28T01:01:09;98507.94;;;6.25;57.07
46722;BME280;32455;43.430;23.136;2023-04-28T01:03:53;98510.78;;;6.23;56.10
46722;BME280;32455;43.430;23.136;2023-04-28T01:06:40;98509.03;;;6.31;57.48
46722;BME280;32455;43.430;23.136;2023-04-28T01:09:26;98496.72;;;6.15;55.85
46722;BME280;32455;43.430;23.136;2023-04-28T01:12:12;98515.31;;;6.23;58.11
46722;BME280;32455;43.430;23.136;2023-04-28T01:14:57;98504.91;;;6.28;56.34
46722;BME280;32455;43.430;23.136;2023-04-28T01:17:44;98508.47;;;6.35;55.38
46722;BME280;32455;43.430;23.136;2023-04-28T01:20:31;98505.81;;;6.35;54.62
46722;BME280;32455;43.430;23.136;2023-04-28T01:23:17;98514.44;;;6.37;54.95
46722;BME280;32455;43.430;23.136;2023-04-28T01:26:02;98514.78;;;6.49;56.09
46722;BME280;32455;43.430;23.136;2023-04-28T01:28:48;98512.69;;;6.44;56.75
46722;BME280;32455;43.430;23.136;2023-04-28T01:31:34;98527.88;;;6.44;57.59
46722;BME280;32455;43.430;23.136;2023-04-28T01:34:19;98521.16;;;6.33;56.16
46722;BME280;32455;43.430;23.136;2023-04-28T01:37:04;98519.97;;;6.36;55.96
46722;BME280;32455;43.430;23.136;2023-04-28T01:39:50;98513.44;;;6.38;56.81
46722;BME280;32455;43.430;23.136;2023-04-28T01:42:35;98519.88;;;6.29;56.69
46722;BME280;32455;43.430;23.136;2023-04-28T01:45:20;98522.13;;;6.11;58.45
46722;BME280;32455;43.430;23.136;2023-04-28T01:48:06;98515.56;;;6.28;56.39
46722;BME280;32455;43.430;23.136;2023-04-28T01:50:51;98517.50;;;6.34;55.47
46722;BME280;32455;43.430;23.136;2023-04-28T01:53:36;98516.06;;;6.17;56.52
46722;BME280;32455;43.430;23.136;2023-04-28T01:56:22;98516.53;;;6.06;57.47
46722;BME280;32455;43.430;23.136;2023-04-28T01:59:07;98520.56;;;5.87;58.58
46722;BME280;32455;43.430;23.136;2023-04-28T02:01:52;98507.88;;;5.74;58.61
46722;BME280;32455;43.430;23.136;2023-04-28T02:04:38;98528.72;;;5.85;59.37
46722;BME280;32455;43.430;23.136;2023-04-28T02:07:23;98519.53;;;5.58;60.17
46722;BME280;32455;43.430;23.136;2023-04-28T02:10:09;98526.66;;;5.43;61.14
46722;BME280;32455;43.430;23.136;2023-04-28T02:12:54;98527.16;;;5.61;60.56
46722;BME280;32455;43.430;23.136;2023-04-28T02:15:41;98528.53;;;5.57;61.00
46722;BME280;32455;43.430;23.136;2023-04-28T02:18:26;98547.25;;;5.49;60.69
46722;BME280;32455;43.430;23.136;2023-04-28T02:21:12;98542.13;;;5.62;58.65
46722;BME280;32455;43.430;23.136;2023-04-28T02:23:57;98548.97;;;5.80;58.56
46722;BME280;32455;43.430;23.136;2023-04-28T02:26:43;98547.47;;;5.77;60.12
46722;BME280;32455;43.430;23.136;2023-04-28T02:29:28;98551.59;;;5.65;59.48
46722;BME280;32455;43.430;23.136;2023-04-28T02:32:14;98551.03;;;5.69;61.01
46722;BME280;32455;43.430;23.136;2023-04-28T02:34:59;98555.63;;;5.61;60.25
46722;BME280;32455;43.430;23.136;2023-04-28T02:37:45;98553.91;;;5.68;61.42
46722;BME280;32455;43.430;23.136;2023-04-28T02:40:30;98565.44;;;5.45;60.66
46722;BME280;32455;43.430;23.136;2023-04-28T02:43:15;98548.50;;;5.61;60.19
46722;BME280;32455;43.430;23.136;2023-04-28T02:46:03;98560.06;;;5.68;62.74
46722;BME280;32455;43.430;23.136;2023-04-28T02:48:49;98558.47;;;5.59;62.95
46722;BME280;32455;43.430;23.136;2023-04-28T02:51:33;98565.38;;;5.53;64.74
46722;BME280;32455;43.430;23.136;2023-04-28T02:54:19;98562.72;;;5.31;63.92
46722;BME280;32455;43.430;23.136;2023-04-28T02:57:13;98573.09;;;5.48;62.46
46722;BME280;32455;43.430;23.136;2023-04-28T02:59:58;98580.22;;;5.48;63.43
46722;BME280;32455;43.430;23.136;2023-04-28T03:02:44;98578.59;;;5.47;63.25
46722;BME280;32455;43.430;23.136;2023-04-28T03:05:29;98572.50;;;5.38;63.47
46722;BME280;32455;43.430;23.136;2023-04-28T03:08:15;98575.44;;;5.43;63.57
46722;BME280;32455;43.430;23.136;2023-04-28T03:11:01;98582.00;;;5.56;60.64
46722;BME280;32455;43.430;23.136;2023-04-28T03:13:46;98575.03;;;5.55;62.27
46722;BME280;32455;43.430;23.136;2023-04-28T03:16:32;98585.81;;;5.61;63.37
46722;BME280;32455;43.430;23.136;2023-04-28T03:19:18;98573.16;;;5.40;64.64
46722;BME280;32455;43.430;23.136;2023-04-28T03:22:03;98573.19;;;5.55;61.64
46722;BME280;32455;43.430;23.136;2023-04-28T03:24:49;98581.94;;;5.64;60.88
46722;BME280;32455;43.430;23.136;2023-04-28T03:27:33;98582.44;;;5.44;60.85
46722;BME280;32455;43.430;23.136;2023-04-28T03:30:19;98598.97;;;5.77;58.88
46722;BME280;32455;43.430;23.136;2023-04-28T03:33:05;98595.59;;;5.84;59.14
46722;BME280;32455;43.430;23.136;2023-04-28T03:35:51;98600.72;;;5.70;62.83
46722;BME280;32455;43.430;23.136;2023-04-28T03:38:37;98604.84;;;5.73;60.68
46722;BME280;32455;43.430;23.136;2023-04-28T03:41:22;98600.03;;;5.68;60.57
46722;BME280;32455;43.430;23.136;2023-04-28T03:44:08;98616.63;;;5.78;60.83
46722;BME280;32455;43.430;23.136;2023-04-28T03:46:53;98612.41;;;5.84;60.47
46722;BME280;32455;43.430;23.136;2023-04-28T03:49:38;98615.34;;;5.89;61.83
46722;BME280;32455;43.430;23.136;2023-04-28T03:52:24;98612.44;;;6.58;58.66
46722;BME280;32455;43.430;23.136;2023-04-28T03:55:10;98609.13;;;7.07;55.44
46722;BME280;32455;43.430;23.136;2023-04-28T03:57:55;98621.88;;;6.90;57.95
46722;BME280;32455;43.430;23.136;2023-04-28T04:00:40;98619.72;;;6.49;58.64
46722;BME280;32455;43.430;23.136;2023-04-28T04:03:26;98614.78;;;6.32;56.54
46722;BME280;32455;43.430;23.136;2023-04-28T04:06:11;98621.38;;;6.50;57.41
46722;BME280;32455;43.430;23.136;2023-04-28T04:08:57;98631.69;;;6.68;57.97
46722;BME280;32455;43.430;23.136;2023-04-28T04:11:43;98631.97;;;6.73;59.02
46722;BME280;32455;43.430;23.136;2023-04-28T04:14:28;98635.25;;;6.75;58.18
46722;BME280;32455;43.430;23.136;2023-04-28T04:17:13;98631.41;;;6.78;54.31
46722;BME280;32455;43.430;23.136;2023-04-28T04:19:58;98642.94;;;7.00;55.75
46722;BME280;32455;43.430;23.136;2023-04-28T04:22:43;98643.81;;;6.86;55.92
46722;BME280;32455;43.430;23.136;2023-04-28T04:25:29;98635.66;;;7.09;56.27
46722;BME280;32455;43.430;23.136;2023-04-28T04:28:14;98648.13;;;7.23;55.04
46722;BME280;32455;43.430;23.136;2023-04-28T04:31:00;98655.34;;;7.44;55.73
46722;BME280;32455;43.430;23.136;2023-04-28T04:33:45;98655.34;;;7.44;56.36
46722;BME280;32455;43.430;23.136;2023-04-28T04:36:31;98668.97;;;7.49;52.33
46722;BME280;32455;43.430;23.136;2023-04-28T04:39:17;98662.50;;;7.58;52.83
46722;BME280;32455;43.430;23.136;2023-04-28T04:42:03;98657.75;;;7.60;56.12
46722;BME280;32455;43.430;23.136;2023-04-28T04:44:48;98650.09;;;7.78;55.23
46722;BME280;32455;43.430;23.136;2023-04-28T04:47:33;98651.97;;;8.06;55.94
46722;BME280;32455;43.430;23.136;2023-04-28T04:50:19;98664.94;;;8.09;56.26
46722;BME280;32455;43.430;23.136;2023-04-28T04:53:05;98667.69;;;8.16;52.75
46722;BME280;32455;43.430;23.136;2023-04-28T04:55:50;98677.81;;;8.20;51.38
46722;BME280;32455;43.430;23.136;2023-04-28T04:58:35;98669.78;;;7.92;50.39
46722;BME280;32455;43.430;23.136;2023-04-28T05:01:20;98678.19;;;8.17;51.73
46722;BME280;32455;43.430;23.136;2023-04-28T05:04:06;98673.63;;;8.11;50.14
46722;BME280;32455;43.430;23.136;2023-04-28T05:06:51;98691.69;;;8.02;50.50
46722;BME280;32455;43.430;23.136;2023-04-28T05:09:37;98675.94;;;8.14;52.08
46722;BME280;32455;43.430;23.136;2023-04-28T05:12:22;98687.97;;;8.60;51.03
46722;BME280;32455;43.430;23.136;2023-04-28T05:15:07;98674.31;;;8.20;50.78
46722;BME280;32455;43.430;23.136;2023-04-28T05:17:53;98687.66;;;8.41;50.36
46722;BME280;32455;43.430;23.136;2023-04-28T05:20:38;98683.84;;;8.29;49.69
46722;BME280;32455;43.430;23.136;2023-04-28T05:23:23;98681.22;;;8.64;49.35
46722;BME280;32455;43.430;23.136;2023-04-28T05:26:09;98695.69;;;8.76;50.90
46722;BME280;32455;43.430;23.136;2023-04-28T05:28:54;98687.97;;;8.60;50.18
46722;BME280;32455;43.430;23.136;2023-04-28T05:31:40;98696.50;;;8.70;51.51
46722;BME280;32455;43.430;23.136;2023-04-28T05:34:25;98695.69;;;8.41;49.67
46722;BME280;32455;43.430;23.136;2023-04-28T05:37:10;98687.44;;;8.71;50.93
46722;BME280;32455;43.430;23.136;2023-04-28T05:39:55;98679.72;;;8.96;48.38
46722;BME280;32455;43.430;23.136;2023-04-28T05:42:40;98682.84;;;9.06;48.59
46722;BME280;32455;43.430;23.136;2023-04-28T05:45:25;98704.50;;;9.05;47.63
46722;BME280;32455;43.430;23.136;2023-04-28T05:48:11;98686.63;;;8.77;49.09
46722;BME280;32455;43.430;23.136;2023-04-28T05:50:56;98707.78;;;9.00;48.10
46722;BME280;32455;43.430;23.136;2023-04-28T05:53:41;98687.63;;;9.11;48.29
46722;BME280;32455;43.430;23.136;2023-04-28T05:56:26;98686.19;;;9.08;48.67
46722;BME280;32455;43.430;23.136;2023-04-28T05:59:12;98694.22;;;9.08;47.70
46722;BME280;32455;43.430;23.136;2023-04-28T06:01:57;98689.69;;;9.15;48.23
46722;BME280;32455;43.430;23.136;2023-04-28T06:04:42;98700.47;;;9.28;47.69
46722;BME280;32455;43.430;23.136;2023-04-28T06:07:27;98691.03;;;9.46;48.43
46722;BME280;32455;43.430;23.136;2023-04-28T06:10:12;98700.84;;;9.12;46.82
46722;BME280;32455;43.430;23.136;2023-04-28T06:12:58;98689.38;;;9.38;48.15
46722;BME280;32455;43.430;23.136;2023-04-28T06:15:44;98690.22;;;9.52;47.12
46722;BME280;32455;43.430;23.136;2023-04-28T06:18:29;98704.06;;;9.62;46.94
46722;BME280;32455;43.430;23.136;2023-04-28T06:21:17;98707.81;;;10.01;47.53
46722;BME280;32455;43.430;23.136;2023-04-28T06:24:03;98699.97;;;9.93;48.09
46722;BME280;32455;43.430;23.136;2023-04-28T06:26:48;98701.84;;;9.86;46.43
46722;BME280;32455;43.430;23.136;2023-04-28T06:29:34;98692.56;;;9.95;47.14
46722;BME280;32455;43.430;23.136;2023-04-28T06:32:19;98707.25;;;10.25;45.42
46722;BME280;32455;43.430;23.136;2023-04-28T06:35:05;98703.94;;;10.43;45.47
46722;BME280;32455;43.430;23.136;2023-04-28T06:37:51;98699.38;;;10.31;45.57
46722;BME280;32455;43.430;23.136;2023-04-28T06:40:37;98696.50;;;10.39;46.55
46722;BME280;32455;43.430;23.136;2023-04-28T06:43:24;98709.31;;;10.50;47.45
46722;BME280;32455;43.430;23.136;2023-04-28T06:46:08;98695.88;;;10.37;47.18
46722;BME280;32455;43.430;23.136;2023-04-28T06:48:57;98701.59;;;10.73;44.18
46722;BME280;32455;43.430;23.136;2023-04-28T06:51:43;98692.38;;;10.49;45.15
46722;BME280;32455;43.430;23.136;2023-04-28T06:54:29;98685.88;;;10.77;45.01
46722;BME280;32455;43.430;23.136;2023-04-28T06:57:14;98703.19;;;11.01;43.65
46722;BME280;32455;43.430;23.136;2023-04-28T07:00:00;98703.13;;;11.14;46.50
46722;BME280;32455;43.430;23.136;2023-04-28T07:02:46;98696.16;;;10.93;44.67
46722;BME280;32455;43.430;23.136;2023-04-28T07:05:31;98699.03;;;11.05;45.23
46722;BME280;32455;43.430;23.136;2023-04-28T07:08:17;98694.13;;;10.89;45.18
46722;BME280;32455;43.430;23.136;2023-04-28T07:11:03;98696.94;;;11.07;45.38
46722;BME280;32455;43.430;23.136;2023-04-28T07:13:48;98701.44;;;11.20;45.05
46722;BME280;32455;43.430;23.136;2023-04-28T07:16:36;98694.25;;;11.07;46.48
46722;BME280;32455;43.430;23.136;2023-04-28T07:19:21;98706.09;;;11.76;45.98
46722;BME280;32455;43.430;23.136;2023-04-28T07:22:06;98709.03;;;12.06;43.26
46722;BME280;32455;43.430;23.136;2023-04-28T07:24:51;98706.25;;;11.11;43.02
46722;BME280;32455;43.430;23.136;2023-04-28T07:27:37;98705.88;;;11.77;44.77
46722;BME280;32455;43.430;23.136;2023-04-28T07:30:22;98713.84;;;12.04;44.27
46722;BME280;32455;43.430;23.136;2023-04-28T07:33:07;98707.44;;;11.98;42.05
46722;BME280;32455;43.430;23.136;2023-04-28T07:35:53;98696.47;;;12.00;41.66
46722;BME280;32455;43.430;23.136;2023-04-28T07:38:38;98703.31;;;12.46;42.32
46722;BME280;32455;43.430;23.136;2023-04-28T07:41:25;98697.59;;;12.36;43.61
46722;BME280;32455;43.430;23.136;2023-04-28T07:44:12;98695.56;;;12.06;42.67
46722;BME280;32455;43.430;23.136;2023-04-28T07:47:00;98702.19;;;12.53;41.58
46722;BME280;32455;43.430;23.136;2023-04-28T07:49:45;98691.13;;;12.62;42.47
46722;BME280;32455;43.430;23.136;2023-04-28T07:52:31;98693.78;;;12.87;42.40
46722;BME280;32455;43.430;23.136;2023-04-28T07:55:16;98685.00;;;12.73;40.77
46722;BME280;32455;43.430;23.136;2023-04-28T07:58:01;98694.00;;;12.85;41.57
46722;BME280;32455;43.430;23.136;2023-04-28T08:00:47;98693.84;;;12.12;42.09
46722;BME280;32455;43.430;23.136;2023-04-28T08:03:32;98702.53;;;12.64;41.51
46722;BME280;32455;43.430;23.136;2023-04-28T08:06:18;98697.63;;;12.54;41.55
46722;BME280;32455;43.430;23.136;2023-04-28T08:09:03;98692.63;;;12.58;39.85
46722;BME280;32455;43.430;23.136;2023-04-28T08:11:50;98687.97;;;12.46;40.51
46722;BME280;32455;43.430;23.136;2023-04-28T08:14:35;98700.44;;;12.84;41.62
46722;BME280;32455;43.430;23.136;2023-04-28T08:17:20;98708.94;;;13.24;41.07
46722;BME280;32455;43.430;23.136;2023-04-28T08:20:06;98704.31;;;12.88;40.28
46722;BME280;32455;43.430;23.136;2023-04-28T08:22:52;98703.13;;;13.21;40.70
46722;BME280;32455;43.430;23.136;2023-04-28T08:25:37;98700.84;;;13.24;39.10
46722;BME280;32455;43.430;23.136;2023-04-28T08:28:22;98686.91;;;13.27;38.85
46722;BME280;32455;43.430;23.136;2023-04-28T08:31:08;98692.34;;;13.39;40.30
46722;BME280;32455;43.430;23.136;2023-04-28T08:33:53;98705.63;;;13.83;39.07
46722;BME280;32455;43.430;23.136;2023-04-28T08:36:39;98690.28;;;13.95;39.03
46722;BME280;32455;43.430;23.136;2023-04-28T08:39:24;98676.63;;;13.48;38.73
46722;BME280;32455;43.430;23.136;2023-04-28T08:42:11;98686.53;;;13.96;38.92
46722;BME280;32455;43.430;23.136;2023-04-28T08:44:57;98690.53;;;13.93;39.53
46722;BME280;32455;43.430;23.136;2023-04-28T08:47:48;98691.69;;;13.25;38.54
46722;BME280;32455;43.430;23.136;2023-04-28T08:50:34;98681.28;;;13.59;38.76
46722;BME280;32455;43.430;23.136;2023-04-28T08:53:25;98679.66;;;13.40;40.50
46722;BME280;32455;43.430;23.136;2023-04-28T08:56:11;98671.31;;;14.13;39.64
46722;BME280;32455;43.430;23.136;2023-04-28T08:59:04;98678.50;;;14.66;37.35
46722;BME280;32455;43.430;23.136;2023-04-28T09:01:49;98682.81;;;14.32;37.80
46722;BME280;32455;43.430;23.136;2023-04-28T09:04:34;98675.19;;;14.29;37.19
46722;BME280;32455;43.430;23.136;2023-04-28T09:07:20;98674.00;;;14.37;38.64
46722;BME280;32455;43.430;23.136;2023-04-28T09:13:04;98666.97;;;14.47;36.58
46722;BME280;32455;43.430;23.136;2023-04-28T09:15:50;98666.25;;;14.64;38.97
46722;BME280;32455;43.430;23.136;2023-04-28T09:18:55;98666.97;;;14.59;37.72
46722;BME280;32455;43.430;23.136;2023-04-28T09:21:53;98663.25;;;14.48;36.87
46722;BME280;32455;43.430;23.136;2023-04-28T09:24:40;98654.13;;;14.08;38.16
46722;BME280;32455;43.430;23.136;2023-04-28T09:27:28;98649.47;;;14.26;39.59
46722;BME280;32455;43.430;23.136;2023-04-28T09:30:14;98641.22;;;14.45;38.00
46722;BME280;32455;43.430;23.136;2023-04-28T09:33:06;98637.13;;;14.31;40.15
46722;BME280;32455;43.430;23.136;2023-04-28T09:35:52;98641.28;;;14.97;39.05
46722;BME280;32455;43.430;23.136;2023-04-28T09:38:42;98643.94;;;15.20;38.42
46722;BME280;32455;43.430;23.136;2023-04-28T09:41:55;98646.25;;;14.76;37.10
46722;BME280;32455;43.430;23.136;2023-04-28T09:44:52;98640.47;;;14.85;39.95
46722;BME280;32455;43.430;23.136;2023-04-28T09:47:40;98635.22;;;14.78;35.33
46722;BME280;32455;43.430;23.136;2023-04-28T09:50:25;98619.78;;;14.90;36.12
46722;BME280;32455;43.430;23.136;2023-04-28T09:53:11;98623.00;;;14.40;38.51
46722;BME280;32455;43.430;23.136;2023-04-28T09:55:58;98646.88;;;15.07;36.58
46722;BME280;32455;43.430;23.136;2023-04-28T09:58:44;98624.13;;;14.91;36.65
46722;BME280;32455;43.430;23.136;2023-04-28T10:01:36;98637.81;;;15.13;36.92
46722;BME280;32455;43.430;23.136;2023-04-28T10:04:24;98622.09;;;14.98;36.25
46722;BME280;32455;43.430;23.136;2023-04-28T10:07:15;98607.94;;;15.37;35.89
46722;BME280;32455;43.430;23.136;2023-04-28T10:10:02;98615.09;;;15.43;36.82
46722;BME280;32455;43.430;23.136;2023-04-28T10:12:48;98622.28;;;15.37;34.79
46722;BME280;32455;43.430;23.136;2023-04-28T10:15:33;98610.34;;;15.33;34.71
46722;BME280;32455;43.430;23.136;2023-04-28T10:18:21;98601.03;;;14.48;35.85
46722;BME280;32455;43.430;23.136;2023-04-28T10:21:07;98602.81;;;15.23;40.77
46722;BME280;32455;43.430;23.136;2023-04-28T10:27:09;98604.75;;;15.40;34.69
46722;BME280;32455;43.430;23.136;2023-04-28T10:30:11;98592.34;;;15.72;37.22
46722;BME280;32455;43.430;23.136;2023-04-28T10:35:58;98567.84;;;15.50;37.49
46722;BME280;32455;43.430;23.136;2023-04-28T10:39:10;98564.66;;;15.70;37.63
46722;BME280;32455;43.430;23.136;2023-04-28T10:41:58;98586.84;;;15.84;34.87
46722;BME280;32455;43.430;23.136;2023-04-28T10:44:43;98579.97;;;15.48;35.48
46722;BME280;32455;43.430;23.136;2023-04-28T10:48:01;98568.44;;;16.03;35.56
46722;BME280;32455;43.430;23.136;2023-04-28T10:56:34;98551.38;;;16.02;34.39
46722;BME280;32455;43.430;23.136;2023-04-28T10:59:26;98543.59;;;16.28;35.73
46722;BME280;32455;43.430;23.136;2023-04-28T11:02:41;98546.06;;;16.51;35.25
46722;BME280;32455;43.430;23.136;2023-04-28T11:05:27;98554.97;;;16.47;36.56
46722;BME280;32455;43.430;23.136;2023-04-28T11:08:36;98538.34;;;16.21;35.02
46722;BME280;32455;43.430;23.136;2023-04-28T11:11:32;98540.97;;;16.55;33.50
46722;BME280;32455;43.430;23.136;2023-04-28T11:17:13;98534.28;;;16.63;34.01
46722;BME280;32455;43.430;23.136;2023-04-28T11:20:01;98519.13;;;16.45;34.20
46722;BME280;32455;43.430;23.136;2023-04-28T11:22:51;98527.22;;;16.84;33.87
46722;BME280;32455;43.430;23.136;2023-04-28T11:26:06;98529.81;;;16.73;33.06
46722;BME280;32455;43.430;23.136;2023-04-28T11:28:54;98533.53;;;16.45;34.68
46722;BME280;32455;43.430;23.136;2023-04-28T11:31:48;98532.03;;;15.32;34.84
46722;BME280;32455;43.430;23.136;2023-04-28T11:34:36;98531.91;;;15.55;34.51
46722;BME280;32455;43.430;23.136;2023-04-28T11:37:21;98508.72;;;15.14;34.85
46722;BME280;32455;43.430;23.136;2023-04-28T11:40:10;98501.72;;;16.19;33.86
46722;BME280;32455;43.430;23.136;2023-04-28T11:42:57;98519.19;;;16.50;33.97
46722;BME280;32455;43.430;23.136;2023-04-28T11:45:45;98516.66;;;16.21;33.59
46722;BME280;32455;43.430;23.136;2023-04-28T11:48:30;98527.16;;;16.18;33.00
46722;BME280;32455;43.430;23.136;2023-04-28T11:51:34;98523.50;;;16.46;33.17
46722;BME280;32455;43.430;23.136;2023-04-28T11:54:22;98527.50;;;16.87;33.63
46722;BME280;32455;43.430;23.136;2023-04-28T11:57:17;98512.31;;;16.86;33.93
46722;BME280;32455;43.430;23.136;2023-04-28T12:00:13;98510.59;;;17.34;36.62
46722;BME280;32455;43.430;23.136;2023-04-28T12:03:08;98521.78;;;17.38;30.79
46722;BME280;32455;43.430;23.136;2023-04-28T12:05:54;98507.66;;;16.38;33.33
46722;BME280;32455;43.430;23.136;2023-04-28T12:08:39;98512.63;;;16.68;33.49
46722;BME280;32455;43.430;23.136;2023-04-28T12:11:24;98498.53;;;16.27;33.61
46722;BME280;32455;43.430;23.136;2023-04-28T12:14:09;98501.31;;;16.98;33.49
46722;BME280;32455;43.430;23.136;2023-04-28T12:16:55;98491.00;;;17.27;32.49
46722;BME280;32455;43.430;23.136;2023-04-28T12:19:43;98490.88;;;17.44;30.31
46722;BME280;32455;43.430;23.136;2023-04-28T12:22:30;98500.81;;;17.65;33.28
46722;BME280;32455;43.430;23.136;2023-04-28T12:25:17;98496.66;;;17.52;31.90
46722;BME280;32455;43.430;23.136;2023-04-28T12:28:05;98487.38;;;17.16;33.92
46722;BME280;32455;43.430;23.136;2023-04-28T12:31:03;98471.81;;;17.07;34.23
46722;BME280;32455;43.430;23.136;2023-04-28T12:33:48;98490.00;;;17.38;31.91
46722;BME280;32455;43.430;23.136;2023-04-28T12:36:33;98489.81;;;17.50;31.31
46722;BME280;32455;43.430;23.136;2023-04-28T12:39:19;98480.13;;;17.27;31.96
46722;BME280;32455;43.430;23.136;2023-04-28T12:42:04;98484.31;;;17.40;29.94
46722;BME280;32455;43.430;23.136;2023-04-28T12:44:50;98467.41;;;17.00;31.56
46722;BME280;32455;43.430;23.136;2023-04-28T12:47:36;98482.63;;;17.34;32.60
46722;BME280;32455;43.430;23.136;2023-04-28T12:50:23;98461.97;;;17.65;31.29
46722;BME280;32455;43.430;23.136;2023-04-28T12:53:09;98472.72;;;17.49;30.43
46722;BME280;32455;43.430;23.136;2023-04-28T12:55:54;98462.53;;;17.72;31.03
46722;BME280;32455;43.430;23.136;2023-04-28T12:58:39;98463.31;;;17.67;31.42
46722;BME280;32455;43.430;23.136;2023-04-28T13:01:25;98471.03;;;17.75;31.58
46722;BME280;32455;43.430;23.136;2023-04-28T13:04:11;98475.25;;;17.61;30.61
46722;BME280;32455;43.430;23.136;2023-04-28T13:06:57;98468.88;;;17.77;29.34
46722;BME280;32455;43.430;23.136;2023-04-28T13:09:42;98455.59;;;17.49;31.85
46722;BME280;32455;43.430;23.136;2023-04-28T13:12:27;98459.38;;;17.85;31.89
46722;BME280;32455;43.430;23.136;2023-04-28T13:15:13;98448.25;;;17.82;30.04
46722;BME280;32455;43.430;23.136;2023-04-28T13:17:58;98462.44;;;17.57;31.16
46722;BME280;32455;43.430;23.136;2023-04-28T13:20:43;98440.38;;;17.48;30.30
46722;BME280;32455;43.430;23.136;2023-04-28T13:23:29;98452.97;;;18.01;30.76
46722;BME280;32455;43.430;23.136;2023-04-28T13:26:14;98444.56;;;18.08;30.84
46722;BME280;32455;43.430;23.136;2023-04-28T13:28:59;98430.19;;;18.13;30.85
46722;BME280;32455;43.430;23.136;2023-04-28T13:31:46;98411.97;;;17.71;31.38
46722;BME280;32455;43.430;23.136;2023-04-28T13:34:31;98424.94;;;18.01;32.39
46722;BME280;32455;43.430;23.136;2023-04-28T13:37:17;98429.53;;;17.90;31.17
46722;BME280;32455;43.430;23.136;2023-04-28T13:40:02;98421.44;;;18.06;31.88
46722;BME280;32455;43.430;23.136;2023-04-28T13:42:48;98412.78;;;18.19;31.35
46722;BME280;32455;43.430;23.136;2023-04-28T13:45:33;98409.53;;;18.22;32.05
46722;BME280;32455;43.430;23.136;2023-04-28T13:48:18;98393.25;;;18.32;31.41
46722;BME280;32455;43.430;23.136;2023-04-28T13:51:06;98417.78;;;18.47;32.29
46722;BME280;32455;43.430;23.136;2023-04-28T13:53:52;98402.50;;;18.36;32.86
46722;BME280;32455;43.430;23.136;2023-04-28T13:56:38;98408.31;;;17.92;32.51
46722;BME280;32455;43.430;23.136;2023-04-28T13:59:23;98399.16;;;17.61;31.80
46722;BME280;32455;43.430;23.136;2023-04-28T14:02:08;98399.94;;;17.99;31.15
46722;BME280;32455;43.430;23.136;2023-04-28T14:04:55;98390.66;;;17.47;33.98
46722;BME280;32455;43.430;23.136;2023-04-28T14:07:42;98405.94;;;18.06;32.44
46722;BME280;32455;43.430;23.136;2023-04-28T14:10:27;98402.13;;;18.07;31.68
46722;BME280;32455;43.430;23.136;2023-04-28T14:13:13;98405.25;;;18.41;31.94
46722;BME280;32455;43.430;23.136;2023-04-28T14:15:58;98395.38;;;18.15;30.86
46722;BME280;32455;43.430;23.136;2023-04-28T14:18:43;98386.16;;;18.16;32.60
46722;BME280;32455;43.430;23.136;2023-04-28T14:21:28;98389.19;;;18.40;31.86
46722;BME280;32455;43.430;23.136;2023-04-28T14:24:15;98400.66;;;18.42;30.71
46722;BME280;32455;43.430;23.136;2023-04-28T14:27:00;98384.00;;;17.70;33.53
46722;BME280;32455;43.430;23.136;2023-04-28T14:29:45;98382.84;;;18.14;32.19
46722;BME280;32455;43.430;23.136;2023-04-28T14:32:31;98382.66;;;18.41;31.10
46722;BME280;32455;43.430;23.136;2023-04-28T14:35:17;98376.00;;;17.96;31.71
46722;BME280;32455;43.430;23.136;2023-04-28T14:38:05;98389.13;;;18.14;32.22
46722;BME280;32455;43.430;23.136;2023-04-28T14:40:50;98376.03;;;18.06;33.22
46722;BME280;32455;43.430;23.136;2023-04-28T14:43:36;98380.75;;;18.36;33.69
46722;BME280;32455;43.430;23.136;2023-04-28T14:46:22;98345.34;;;17.63;35.50
46722;BME280;32455;43.430;23.136;2023-04-28T14:49:08;98366.78;;;18.07;31.26
46722;BME280;32455;43.430;23.136;2023-04-28T14:51:53;98362.97;;;18.03;32.68
46722;BME280;32455;43.430;23.136;2023-04-28T14:54:39;98365.69;;;18.03;32.77